createdAt,value
2018-08-12T00:01:01.984Z,100879.66
2018-08-12T00:03:30.225Z,100881.61
2018-08-12T00:05:58.416Z,100874.56
2018-08-12T00:08:26.700Z,100883.32
2018-08-12T00:10:55.212Z,100877.54
2018-08-12T00:13:23.428Z,100879.83
2018-08-12T00:15:51.720Z,100873.83
2018-08-12T00:18:20.175Z,100875.86
2018-08-12T00:20:49.417Z,100875.30
2018-08-12T00:23:17.570Z,100870.22
2018-08-12T00:25:45.750Z,100876.25
2018-08-12T00:28:13.950Z,100870.82
2018-08-12T00:30:42.113Z,100867.06
2018-08-12T00:33:11.056Z,100868.07
2018-08-12T00:35:39.257Z,100868.07
2018-08-12T00:38:07.474Z,100866.12
2018-08-12T00:40:35.691Z,100867.58
2018-08-12T00:43:04.525Z,100868.77
2018-08-12T00:45:32.686Z,100867.84
2018-08-12T00:48:00.952Z,100866.06
2018-08-12T00:50:29.145Z,100863.50
2018-08-12T00:52:57.425Z,100862.45
2018-08-12T00:55:25.665Z,100857.77
2018-08-12T00:57:53.889Z,100856.41
2018-08-12T01:00:22.732Z,100855.30
2018-08-12T01:02:50.987Z,100859.12
2018-08-12T01:05:20.417Z,100855.41
2018-08-12T01:07:49.531Z,100858.19
2018-08-12T01:10:18.546Z,100859.64
2018-08-12T01:12:46.971Z,100859.30
2018-08-12T01:15:17.213Z,100855.96
2018-08-12T01:17:45.666Z,100850.95
2018-08-12T01:20:18.461Z,100855.03
2018-08-12T01:22:46.681Z,100853.52
2018-08-12T01:25:14.991Z,100843.34
2018-08-12T01:27:43.317Z,100857.45
2018-08-12T01:30:15.316Z,100852.25
2018-08-12T01:32:44.281Z,100849.71
2018-08-12T01:35:13.339Z,100850.55
2018-08-12T01:37:42.627Z,100847.73
2018-08-12T01:40:12.894Z,100844.73
2018-08-12T01:42:41.845Z,100848.97
2018-08-12T01:45:13.597Z,100847.52
2018-08-12T01:47:41.778Z,100843.13
2018-08-12T01:50:11.917Z,100844.27
2018-08-12T01:52:40.155Z,100846.44
2018-08-12T01:55:08.436Z,100842.59
2018-08-12T01:57:36.641Z,100839.20
2018-08-12T02:00:08.448Z,100851.97
2018-08-12T02:02:36.825Z,100841.14
2018-08-12T02:05:06.115Z,100835.98
2018-08-12T02:07:34.290Z,100841.02
2018-08-12T02:10:02.642Z,100837.74
2018-08-12T02:12:30.819Z,100834.71
2018-08-12T02:14:58.942Z,100837.28
2018-08-12T02:17:27.082Z,100843.37
2018-08-12T02:19:55.334Z,100843.03
2018-08-12T02:22:23.472Z,100842.19
2018-08-12T02:24:51.696Z,100836.99
2018-08-12T02:27:20.121Z,100840.36
2018-08-12T02:29:48.294Z,100835.78
2018-08-12T02:32:16.453Z,100830.66
2018-08-12T02:34:44.650Z,100836.86
2018-08-12T02:37:13.042Z,100833.37
2018-08-12T02:39:41.267Z,100833.72
2018-08-12T02:42:10.300Z,100834.29
2018-08-12T02:44:38.776Z,100824.13
2018-08-12T02:47:06.995Z,100822.39
2018-08-12T02:49:35.205Z,100820.13
2018-08-12T02:52:03.523Z,100816.94
2018-08-12T02:54:31.780Z,100818.44
2018-08-12T02:57:00.973Z,100812.20
2018-08-12T02:59:29.101Z,100812.70
2018-08-12T03:01:57.867Z,100816.64
2018-08-12T03:04:26.081Z,100806.14
2018-08-12T03:06:54.337Z,100801.96
2018-08-12T03:09:22.426Z,100802.87
2018-08-12T03:11:50.559Z,100800.92
2018-08-12T03:14:18.715Z,100804.72
2018-08-12T03:16:46.951Z,100801.55
2018-08-12T03:19:15.206Z,100803.49
2018-08-12T03:21:43.396Z,100803.14
2018-08-12T03:24:11.660Z,100801.47
2018-08-12T03:26:39.841Z,100796.10
2018-08-12T03:29:08.019Z,100791.47
2018-08-12T03:31:36.428Z,100793.73
2018-08-12T03:34:04.749Z,100792.75
2018-08-12T03:36:32.948Z,100788.85
2018-08-12T03:39:01.783Z,100787.98
2018-08-12T03:41:29.989Z,100789.94
2018-08-12T03:43:58.220Z,100789.37
2018-08-12T03:46:26.372Z,100789.03
2018-08-12T03:48:56.176Z,100790.36
2018-08-12T03:51:24.282Z,100789.06
2018-08-12T03:53:52.496Z,100789.23
2018-08-12T03:56:20.718Z,100788.77
2018-08-12T03:58:48.999Z,100781.79
2018-08-12T04:01:17.100Z,100782.88
2018-08-12T04:03:45.337Z,100777.30
2018-08-12T04:06:13.446Z,100778.42
2018-08-12T04:08:42.464Z,100782.69
2018-08-12T04:11:11.394Z,100790.03
2018-08-12T04:13:39.705Z,100784.98
2018-08-12T04:16:07.902Z,100789.52
2018-08-12T04:18:36.239Z,100789.55
2018-08-12T04:21:04.411Z,100788.58
2018-08-12T04:23:32.541Z,100781.39
2018-08-12T04:26:00.708Z,100785.72
2018-08-12T04:28:28.925Z,100778.88
2018-08-12T04:30:57.043Z,100785.08
2018-08-12T04:33:25.227Z,100777.91
2018-08-12T04:35:53.461Z,100778.58
2018-08-12T04:38:21.905Z,100769.63
2018-08-12T04:40:50.083Z,100773.48
2018-08-12T04:43:18.281Z,100771.89
2018-08-12T04:45:46.533Z,100773.66
2018-08-12T04:48:14.759Z,100764.59
2018-08-12T04:50:42.981Z,100766.19
2018-08-12T04:53:11.521Z,100766.63
2018-08-12T04:55:39.846Z,100768.68
2018-08-12T04:58:08.121Z,100763.74
2018-08-12T05:00:36.647Z,100761.27
2018-08-12T05:03:04.860Z,100756.02
2018-08-12T05:05:33.115Z,100759.10
2018-08-12T05:08:01.889Z,100760.73
2018-08-12T05:10:30.160Z,100756.87
2018-08-12T05:12:59.365Z,100752.44
2018-08-12T05:15:27.583Z,100751.49
2018-08-12T05:17:55.769Z,100751.83
2018-08-12T05:20:23.969Z,100749.20
2018-08-12T05:22:52.184Z,100754.58
2018-08-12T05:25:20.394Z,100754.20
2018-08-12T05:27:49.272Z,100752.15
2018-08-12T05:30:17.673Z,100744.94
2018-08-12T05:32:45.815Z,100744.56
2018-08-12T05:35:14.092Z,100738.13
2018-08-12T05:37:43.238Z,100733.83
2018-08-12T05:40:12.252Z,100735.48
2018-08-12T05:42:40.629Z,100731.94
2018-08-12T05:45:10.082Z,100723.80
2018-08-12T05:47:39.337Z,100721.65
2018-08-12T05:50:15.737Z,100716.98
2018-08-12T05:52:45.366Z,100714.54
2018-08-12T05:55:14.336Z,100710.20
2018-08-12T05:57:42.922Z,100710.63
2018-08-12T06:00:13.814Z,100712.89
2018-08-12T06:02:43.472Z,100711.75
2018-08-12T06:05:14.660Z,100708.91
2018-08-12T06:07:43.952Z,100704.64
2018-08-12T06:10:13.956Z,100705.81
2018-08-12T06:12:42.179Z,100697.92
2018-08-12T06:15:13.724Z,100698.34
2018-08-12T06:17:43.344Z,100695.71
2018-08-12T06:20:15.734Z,100694.70
2018-08-12T06:22:44.053Z,100692.30
2018-08-12T06:25:12.253Z,100690.54
2018-08-12T06:27:42.234Z,100686.88
2018-08-12T06:30:13.802Z,100682.01
2018-08-12T06:32:42.861Z,100676.66
2018-08-12T06:35:11.895Z,100678.81
2018-08-12T06:37:41.187Z,100679.64
2018-08-12T06:40:12.814Z,100685.28
2018-08-12T06:42:44.140Z,100681.49
2018-08-12T06:45:16.827Z,100682.73
2018-08-12T06:47:46.155Z,100681.00
2018-08-12T06:50:14.488Z,100683.27
2018-08-12T06:52:42.818Z,100679.41
2018-08-12T06:55:12.261Z,100673.47
2018-08-12T06:57:41.429Z,100673.20
2018-08-12T07:00:16.792Z,100672.34
2018-08-12T07:02:45.074Z,100668.72
2018-08-12T07:05:14.970Z,100676.19
2018-08-12T07:07:43.477Z,100668.43
2018-08-12T07:10:13.602Z,100666.92
2018-08-12T07:12:41.904Z,100659.41
2018-08-12T07:15:14.901Z,100659.86
2018-08-12T07:17:45.094Z,100656.45
2018-08-12T07:20:13.880Z,100657.36
2018-08-12T07:22:43.255Z,100656.14
2018-08-12T07:25:12.934Z,100656.73
2018-08-12T07:27:42.060Z,100658.75
2018-08-12T07:30:13.404Z,100656.11
2018-08-12T07:32:41.775Z,100653.48
2018-08-12T07:35:10.932Z,100652.87
2018-08-12T07:37:39.826Z,100656.58
2018-08-12T07:40:18.644Z,100651.14
2018-08-12T07:42:47.868Z,100660.37
2018-08-12T07:45:16.374Z,100655.39
2018-08-12T07:47:44.750Z,100649.44
2018-08-12T07:50:13.052Z,100646.91
2018-08-12T07:52:42.711Z,100651.42
2018-08-12T07:55:12.045Z,100648.45
2018-08-12T07:57:41.104Z,100646.81
2018-08-12T08:00:14.050Z,100641.80
2018-08-12T08:02:42.462Z,100637.97
2018-08-12T08:05:10.689Z,100631.62
2018-08-12T08:07:39.018Z,100636.45
2018-08-12T08:10:10.285Z,100639.20
2018-08-12T08:12:39.095Z,100631.66
2018-08-12T08:15:11.305Z,100629.28
2018-08-12T08:17:40.213Z,100633.39
2018-08-12T08:20:10.485Z,100641.59
2018-08-12T08:22:38.733Z,100626.94
2018-08-12T08:25:07.903Z,100627.46
2018-08-12T08:27:36.504Z,100628.59
2018-08-12T08:30:07.587Z,100627.75
2018-08-12T08:32:36.872Z,100619.45
2018-08-12T08:35:05.335Z,100618.81
2018-08-12T08:37:33.737Z,100625.92
2018-08-12T08:40:02.133Z,100616.01
2018-08-12T08:42:30.407Z,100615.80
2018-08-12T08:44:58.681Z,100621.42
2018-08-12T08:47:27.037Z,100612.09
2018-08-12T08:49:55.468Z,100608.30
2018-08-12T08:52:23.705Z,100609.27
2018-08-12T08:54:52.010Z,100603.81
2018-08-12T08:57:20.249Z,100606.76
2018-08-12T08:59:48.475Z,100602.44
2018-08-12T09:02:16.655Z,100589.37
2018-08-12T09:04:44.869Z,100587.86
2018-08-12T09:07:13.554Z,100592.59
2018-08-12T09:09:41.799Z,100592.78
2018-08-12T09:12:09.956Z,100580.16
2018-08-12T09:14:39.217Z,100579.55
2018-08-12T09:17:07.498Z,100579.96
2018-08-12T09:19:36.386Z,100577.74
2018-08-12T09:22:04.667Z,100571.08
2018-08-12T09:24:33.013Z,100571.48
2018-08-12T09:27:01.320Z,100562.57
2018-08-12T09:29:29.626Z,100564.75
2018-08-12T09:31:57.880Z,100564.29
2018-08-12T09:34:26.013Z,100554.45
2018-08-12T09:36:54.294Z,100555.10
2018-08-12T09:39:22.702Z,100545.30
2018-08-12T09:41:50.924Z,100544.70
2018-08-12T09:44:19.060Z,100547.19
2018-08-12T09:46:47.352Z,100538.02
2018-08-12T09:49:15.622Z,100544.20
2018-08-12T09:51:44.014Z,100538.03
2018-08-12T09:54:12.107Z,100537.19
2018-08-12T09:56:40.298Z,100537.23
2018-08-12T09:59:08.530Z,100526.36
2018-08-12T10:01:36.763Z,100534.70
2018-08-12T10:04:05.754Z,100527.09
2018-08-12T10:06:34.060Z,100535.75
2018-08-12T10:09:02.344Z,100521.88
2018-08-12T10:11:30.625Z,100519.77
2018-08-12T10:13:58.911Z,100509.77
2018-08-12T10:16:27.166Z,100498.95
2018-08-12T10:18:55.450Z,100502.23
2018-08-12T10:21:23.770Z,100495.48
2018-08-12T10:23:51.949Z,100485.97
2018-08-12T10:26:20.302Z,100494.99
2018-08-12T10:28:48.657Z,100492.14
2018-08-12T10:31:16.863Z,100483.08
2018-08-12T10:33:45.096Z,100484.78
2018-08-12T10:36:13.333Z,100464.23
2018-08-12T10:38:41.612Z,100465.97
2018-08-12T10:41:09.834Z,100454.64
2018-08-12T10:43:38.182Z,100451.84
2018-08-12T10:46:06.471Z,100445.70
2018-08-12T10:48:34.681Z,100459.69
2018-08-12T10:51:02.857Z,100451.48
2018-08-12T10:53:31.122Z,100454.53
2018-08-12T10:55:59.533Z,100447.36
2018-08-12T10:58:28.274Z,100444.04
2018-08-12T11:00:56.671Z,100445.16
2018-08-12T11:03:24.910Z,100434.29
2018-08-12T11:05:53.351Z,100426.59
2018-08-12T11:08:21.717Z,100422.95
2018-08-12T11:10:50.128Z,100436.19
2018-08-12T11:13:18.368Z,100426.63
2018-08-12T11:15:46.518Z,100426.39
2018-08-12T11:18:14.682Z,100425.14
2018-08-12T11:20:42.854Z,100409.27
2018-08-12T11:23:10.972Z,100408.06
2018-08-12T11:25:39.217Z,100412.17
2018-08-12T11:28:07.474Z,100406.34
2018-08-12T11:30:35.690Z,100397.72
2018-08-12T11:33:04.091Z,100391.14
2018-08-12T11:35:32.320Z,100395.76
2018-08-12T11:38:00.667Z,100383.11
2018-08-12T11:40:28.890Z,100380.80
2018-08-12T11:42:57.123Z,100371.38
2018-08-12T11:45:25.228Z,100370.80
2018-08-12T11:47:55.043Z,100365.61
2018-08-12T11:50:23.476Z,100357.98
2018-08-12T11:52:51.744Z,100359.66
2018-08-12T11:55:20.110Z,100350.73
2018-08-12T11:57:48.492Z,100351.08
2018-08-12T12:00:18.927Z,100349.58
2018-08-12T12:02:48.291Z,100351.95
2018-08-12T12:05:16.645Z,100348.51
2018-08-12T12:07:44.903Z,100343.73
2018-08-12T12:10:16.729Z,100339.09
2018-08-12T12:12:46.135Z,100333.69
2018-08-12T12:15:15.021Z,100322.84
2018-08-12T12:17:44.120Z,100313.41
2018-08-12T12:20:13.227Z,100321.64
2018-08-12T12:22:42.382Z,100315.45
2018-08-12T12:25:13.803Z,100316.23
2018-08-12T12:27:42.121Z,100305.16
2018-08-12T12:30:16.638Z,100311.78
2018-08-12T12:32:45.578Z,100310.29
2018-08-12T12:35:13.783Z,100309.28
2018-08-12T12:37:44.687Z,100306.00
2018-08-12T12:40:14.897Z,100300.24
2018-08-12T12:42:43.659Z,100295.69
2018-08-12T12:45:12.722Z,100296.06
2018-08-12T12:47:41.463Z,100288.86
2018-08-12T12:50:17.530Z,100293.45
2018-08-12T12:52:46.600Z,100282.08
2018-08-12T12:55:15.120Z,100285.20
2018-08-12T12:57:44.506Z,100285.66
2018-08-12T13:00:14.958Z,100281.76
2018-08-12T13:02:43.330Z,100280.43
2018-08-12T13:05:14.118Z,100268.67
2018-08-12T13:07:43.680Z,100259.80
2018-08-12T13:10:12.820Z,100267.95
2018-08-12T13:12:42.309Z,100248.64
2018-08-12T13:15:12.780Z,100242.44
2018-08-12T13:17:41.668Z,100236.30
2018-08-12T13:20:15.847Z,100238.90
2018-08-12T13:22:45.339Z,100226.98
2018-08-12T13:25:15.787Z,100226.10
2018-08-12T13:27:44.472Z,100226.23
2018-08-12T13:30:14.847Z,100223.28
2018-08-12T13:32:44.117Z,100226.45
2018-08-12T13:35:12.384Z,100225.38
2018-08-12T13:37:41.061Z,100214.38
2018-08-12T13:40:11.837Z,100212.84
2018-08-12T13:42:40.861Z,100207.50
2018-08-12T13:45:10.241Z,100207.75
2018-08-12T13:47:39.053Z,100210.07
2018-08-12T13:50:11.061Z,100204.73
2018-08-12T13:52:39.393Z,100192.47
2018-08-12T13:55:07.661Z,100188.14
2018-08-12T13:57:36.095Z,100184.89
2018-08-12T14:00:09.711Z,100176.08
2018-08-12T14:02:38.701Z,100172.52
2018-08-12T14:05:06.899Z,100174.86
2018-08-12T14:07:35.827Z,100158.44
2018-08-12T14:10:05.443Z,100160.99
2018-08-12T14:12:33.715Z,100159.14
2018-08-12T14:15:01.890Z,100160.86
2018-08-12T14:17:30.659Z,100151.82
2018-08-12T14:19:58.806Z,100153.53
2018-08-12T14:22:27.008Z,100151.73
2018-08-12T14:24:55.255Z,100141.27
2018-08-12T14:27:23.505Z,100143.74
2018-08-12T14:29:51.817Z,100144.05
2018-08-12T14:32:20.082Z,100134.63
2018-08-12T14:34:48.395Z,100127.53
2018-08-12T14:37:16.812Z,100126.83
2018-08-12T14:39:45.006Z,100124.58
2018-08-12T14:42:13.632Z,100122.80
2018-08-12T14:44:41.886Z,100114.58
2018-08-12T14:47:10.053Z,100106.97
2018-08-12T14:49:38.361Z,100104.23
2018-08-12T14:52:06.614Z,100099.67
2018-08-12T14:54:34.833Z,100099.02
2018-08-12T14:57:04.100Z,100093.00
2018-08-12T14:59:33.218Z,100088.69
2018-08-12T15:02:01.338Z,100096.16
2018-08-12T15:04:31.757Z,100090.95
2018-08-12T15:07:05.828Z,100086.92
2018-08-12T15:09:43.484Z,100079.45
2018-08-12T15:12:11.743Z,100080.48
2018-08-12T15:14:43.356Z,100072.90
2018-08-12T15:17:16.346Z,100066.55
2018-08-12T15:19:47.089Z,100069.56
2018-08-12T15:22:15.391Z,100072.22
2018-08-12T15:24:50.519Z,100069.58
2018-08-12T15:27:19.429Z,100066.42
2018-08-12T15:29:47.707Z,100070.68
2018-08-12T15:32:16.173Z,100065.01
2018-08-12T15:34:48.537Z,100062.81
2018-08-12T15:37:16.947Z,100061.86
2018-08-12T15:39:45.414Z,100048.12
2018-08-12T15:42:17.799Z,100049.84
2018-08-12T15:44:47.404Z,100044.77
2018-08-12T15:47:18.991Z,100043.25
2018-08-12T15:49:50.407Z,100038.05
2018-08-12T15:52:18.854Z,100036.12
2018-08-12T15:54:48.124Z,100030.17
2018-08-12T15:57:16.438Z,100026.07
2018-08-12T15:59:44.606Z,100023.88
2018-08-12T16:02:12.853Z,100024.59
2018-08-12T16:04:42.422Z,100019.89
2018-08-12T16:07:11.440Z,100018.47
2018-08-12T16:09:39.589Z,100018.38
2018-08-12T16:12:09.556Z,100003.50
2018-08-12T16:14:37.890Z,100009.39
2018-08-12T16:20:09.609Z,99995.27
2018-08-12T16:22:40.064Z,99994.84
2018-08-12T16:25:15.159Z,99992.58
2018-08-12T16:27:49.396Z,99995.50
2018-08-12T16:30:27.540Z,99991.61
2018-08-12T16:32:55.983Z,99989.92
2018-08-12T16:35:24.513Z,99986.78
2018-08-12T16:37:52.765Z,99982.90
2018-08-12T16:40:22.851Z,99982.80
2018-08-12T16:42:52.915Z,99985.34
2018-08-12T16:45:26.613Z,99977.47
2018-08-12T16:47:58.341Z,99973.66
2018-08-12T16:50:28.235Z,99972.08
2018-08-12T16:53:00.137Z,99971.30
2018-08-12T16:55:28.617Z,99966.31
2018-08-12T16:58:01.477Z,99964.98
2018-08-12T17:00:36.068Z,99963.39
2018-08-12T17:03:05.813Z,99957.77
2018-08-12T17:05:37.462Z,99958.94
2018-08-12T17:08:06.753Z,99956.16
2018-08-12T17:10:38.634Z,99947.44
2018-08-12T17:13:11.296Z,99940.59
2018-08-12T17:15:44.227Z,99946.75
2018-08-12T17:18:13.134Z,99935.74
2018-08-12T17:20:41.419Z,99936.25
2018-08-12T17:23:11.814Z,99933.37
2018-08-12T17:25:40.907Z,99935.92
2018-08-12T17:28:15.520Z,99930.25
2018-08-12T17:30:44.580Z,99927.33
2018-08-12T17:33:12.888Z,99921.55
2018-08-12T17:35:41.240Z,99922.59
2018-08-12T17:38:09.696Z,99925.72
2018-08-12T17:40:39.034Z,99921.69
2018-08-12T17:43:15.513Z,99928.72
2018-08-12T17:45:44.962Z,99918.89
2018-08-12T17:48:18.574Z,99921.89
2018-08-12T17:50:53.538Z,99914.47
2018-08-12T18:06:53.749Z,99915.23
2018-08-12T18:09:22.253Z,99916.36
2018-08-12T18:11:51.615Z,99918.20
2018-08-12T18:14:22.801Z,99911.58
2018-08-12T18:16:51.335Z,99921.20
2018-08-12T18:19:20.797Z,99916.72
2018-08-12T18:21:50.521Z,99916.83
2018-08-12T18:24:20.789Z,99915.02
2018-08-12T18:26:50.673Z,99915.95
2018-08-12T18:29:18.946Z,99915.66
2018-08-12T18:31:48.435Z,99908.39
2018-08-12T18:34:17.831Z,99905.97
2018-08-12T18:36:47.149Z,99908.70
2018-08-12T18:39:15.910Z,99907.45
2018-08-12T18:41:45.179Z,99903.51
2018-08-12T18:44:14.414Z,99913.45
2018-08-12T18:46:43.354Z,99906.06
2018-08-12T18:49:11.636Z,99907.28
2018-08-12T18:51:40.497Z,99917.93
2018-08-12T18:54:08.768Z,99907.85
2018-08-12T18:56:37.067Z,99914.52
2018-08-12T18:59:05.393Z,99912.59
2018-08-12T19:01:33.713Z,99917.22
2018-08-12T19:04:03.028Z,99916.73
2018-08-12T19:06:31.363Z,99915.52
2018-08-12T19:08:59.649Z,99914.29
2018-08-12T19:11:28.537Z,99910.80
2018-08-12T19:13:56.775Z,99917.66
2018-08-12T19:16:25.252Z,99919.19
2018-08-12T19:18:53.618Z,99909.20
2018-08-12T19:21:22.033Z,99916.95
2018-08-12T19:23:50.350Z,99911.03
2018-08-12T19:26:18.625Z,99909.95
2018-08-12T19:28:47.002Z,99906.94
2018-08-12T19:31:15.319Z,99904.88
2018-08-12T19:33:43.773Z,99909.66
2018-08-12T19:36:13.286Z,99909.19
2018-08-12T19:38:42.784Z,99909.48
2018-08-12T19:41:13.789Z,99910.59
2018-08-12T19:43:42.191Z,99907.13
2018-08-12T19:46:15.764Z,99906.40
2018-08-12T19:48:51.526Z,99904.28
2018-08-12T19:51:26.242Z,99903.61
2018-08-12T19:54:09.981Z,99900.49
2018-08-12T19:56:46.235Z,99907.20
2018-08-12T20:06:12.433Z,99907.08
2018-08-12T20:08:41.607Z,99916.34
2018-08-12T20:11:11.681Z,99916.80
2018-08-12T20:13:40.579Z,99915.75
2018-08-12T20:16:09.329Z,99913.05
2018-08-12T20:18:38.645Z,99914.74
2018-08-12T20:21:06.990Z,99915.19
2018-08-12T20:23:35.588Z,99912.88
2018-08-12T20:26:05.472Z,99908.78
2018-08-12T20:28:34.295Z,99905.25
2018-08-12T20:31:03.246Z,99906.59
2018-08-12T20:33:33.505Z,99904.27
2018-08-12T20:36:04.105Z,99904.59
2018-08-12T20:38:34.515Z,99900.94
2018-08-12T20:41:04.613Z,99896.50
2018-08-12T20:43:32.873Z,99899.44
2018-08-12T20:46:01.107Z,99895.20
2018-08-12T20:48:29.393Z,99894.41
2018-08-12T20:50:57.705Z,99889.16
2018-08-12T20:53:26.575Z,99888.64
2018-08-12T20:55:58.028Z,99888.56
2018-08-12T20:58:26.336Z,99889.89
2018-08-12T21:00:54.572Z,99885.57
2018-08-12T21:03:22.850Z,99892.02
2018-08-12T21:05:52.680Z,99889.27
2018-08-12T21:08:20.968Z,99884.82
2018-08-12T21:10:50.228Z,99884.16
2018-08-12T21:13:18.508Z,99878.73
2018-08-12T21:15:46.834Z,99877.35
2018-08-12T21:18:15.064Z,99872.88
2018-08-12T21:20:43.449Z,99875.73
2018-08-12T21:23:12.358Z,99883.88
2018-08-12T21:25:41.407Z,99884.27
2018-08-12T21:28:09.669Z,99880.67
2018-08-12T21:30:38.784Z,99876.14
2018-08-12T21:33:06.972Z,99876.88
2018-08-12T21:35:35.572Z,99872.75
2018-08-12T21:38:04.089Z,99865.16
2018-08-12T21:40:32.499Z,99866.92
2018-08-12T21:43:00.782Z,99866.95
2018-08-12T21:45:29.157Z,99865.14
2018-08-12T21:47:57.383Z,99860.50
2018-08-12T21:50:26.521Z,99860.64
2018-08-12T21:52:55.203Z,99854.94
2018-08-12T21:55:23.741Z,99860.47
2018-08-12T21:57:52.995Z,99858.95
2018-08-12T22:00:21.537Z,99847.70
2018-08-12T22:02:50.531Z,99842.20
2018-08-12T22:05:22.086Z,99842.58
2018-08-12T22:07:50.271Z,99845.56
2018-08-12T22:10:18.692Z,99842.30
2018-08-12T22:12:47.307Z,99839.87
2018-08-12T22:15:15.810Z,99836.61
2018-08-12T22:17:44.185Z,99836.30
2018-08-12T22:20:12.733Z,99833.66
2018-08-12T22:22:41.097Z,99824.97
2018-08-12T22:25:09.349Z,99824.23
2018-08-12T22:27:38.815Z,99823.45
2018-08-12T22:30:11.594Z,99824.61
2018-08-12T22:32:40.279Z,99826.17
2018-08-12T22:35:08.569Z,99822.19
2018-08-12T22:37:37.029Z,99818.59
2018-08-12T22:40:07.353Z,99819.08
2018-08-12T22:42:35.920Z,99822.73
2018-08-12T22:45:07.216Z,99816.78
2018-08-12T22:47:35.527Z,99815.66
2018-08-12T22:50:04.692Z,99818.73
2018-08-12T22:52:33.187Z,99815.50
2018-08-12T22:55:02.352Z,99814.92
2018-08-12T22:57:31.209Z,99808.38
2018-08-12T22:59:59.386Z,99807.91
2018-08-12T23:02:27.871Z,99804.98
2018-08-12T23:04:56.900Z,99803.34
2018-08-12T23:07:25.218Z,99799.72
2018-08-12T23:09:54.675Z,99801.00
2018-08-12T23:12:23.256Z,99799.08
2018-08-12T23:14:51.474Z,99795.14
2018-08-12T23:17:19.950Z,99800.25
2018-08-12T23:19:48.832Z,99804.39
2018-08-12T23:22:17.719Z,99797.62
2018-08-12T23:24:45.993Z,99793.72
2018-08-12T23:27:14.272Z,99795.40
2018-08-12T23:29:42.489Z,99789.72
2018-08-12T23:32:10.722Z,99787.20
2018-08-12T23:34:38.970Z,99786.82
2018-08-12T23:37:07.890Z,99782.05
2018-08-12T23:39:36.265Z,99788.88
2018-08-12T23:42:04.517Z,99788.95
2018-08-12T23:44:32.660Z,99778.32
2018-08-12T23:47:01.353Z,99777.91
2018-08-12T23:49:29.580Z,99781.88
2018-08-12T23:51:57.870Z,99773.44
2018-08-12T23:54:26.502Z,99776.41
2018-08-12T23:56:55.158Z,99771.14
2018-08-12T23:59:23.611Z,99779.47
